TimeEDT,TemperatureF,Dew PointF,Humidity,Sea Level PressureIn,VisibilityMPH,Wind Direction,Wind SpeedMPH,Gust SpeedMPH,PrecipitationIn,Events,Conditions,WindDirDegrees,DateUTC
12:54 AM,57.9,53.1,84,30.11,10.0,Calm,Calm,-,N/A,,Clear,0,2013-08-04 04:54:00
1:54 AM,57.0,53.1,87,30.12,10.0,Calm,Calm,-,N/A,,Clear,0,2013-08-04 05:54:00
2:54 AM,55.9,52.0,87,30.13,10.0,NW,4.6,-,N/A,,Clear,320,2013-08-04 06:54:00
3:54 AM,59.0,54.0,83,30.14,10.0,Calm,Calm,-,N/A,,Partly Cloudy,0,2013-08-04 07:54:00
4:54 AM,57.9,54.0,87,30.14,10.0,Calm,Calm,-,N/A,,Clear,0,2013-08-04 08:54:00
5:54 AM,57.0,53.1,87,30.14,10.0,Calm,Calm,-,N/A,,Mostly Cloudy,0,2013-08-04 09:54:00
6:54 AM,55.9,52.0,87,30.16,10.0,Calm,Calm,-,N/A,,Clear,0,2013-08-04 10:54:00
7:54 AM,61.0,55.9,83,30.18,10.0,ENE,3.5,-,N/A,,Clear,60,2013-08-04 11:54:00
8:54 AM,64.0,55.9,75,30.18,10.0,ENE,5.8,-,N/A,,Clear,60,2013-08-04 12:54:00
9:54 AM,68.0,53.1,59,30.20,10.0,NE,9.2,-,N/A,,Clear,40,2013-08-04 13:54:00
10:54 AM,70.0,53.1,55,30.21,10.0,ENE,4.6,-,N/A,,Clear,70,2013-08-04 14:54:00
11:54 AM,72.0,55.0,55,30.20,10.0,North,5.8,-,N/A,,Clear,360,2013-08-04 15:54:00
12:54 PM,72.0,53.1,51,30.19,10.0,North,10.4,-,N/A,,Partly Cloudy,350,2013-08-04 16:54:00
1:54 PM,73.0,53.1,49,30.18,10.0,NNW,11.5,-,N/A,,Scattered Clouds,340,2013-08-04 17:54:00
2:54 PM,75.9,52.0,43,30.18,10.0,North,11.5,-,N/A,,Scattered Clouds,350,2013-08-04 18:54:00
3:54 PM,73.9,50.0,43,30.17,10.0,NNW,12.7,18.4,N/A,,Clear,330,2013-08-04 19:54:00
4:54 PM,73.0,48.9,42,30.15,10.0,North,9.2,-,N/A,,Clear,10,2013-08-04 20:54:00
5:54 PM,73.9,51.1,45,30.16,10.0,North,10.4,-,N/A,,Clear,360,2013-08-04 21:54:00
6:54 PM,72.0,51.1,48,30.16,10.0,North,10.4,-,N/A,,Clear,350,2013-08-04 22:54:00
7:54 PM,68.0,51.1,55,30.15,10.0,North,6.9,-,N/A,,Clear,10,2013-08-04 23:54:00
8:54 PM,64.0,53.1,67,30.15,10.0,North,5.8,-,N/A,,Clear,350,2013-08-05 00:54:00
9:54 PM,63.0,53.1,70,30.14,10.0,NNE,3.5,-,N/A,,Clear,20,2013-08-05 01:54:00
10:54 PM,63.0,52.0,67,30.14,10.0,NNE,3.5,-,N/A,,Clear,20,2013-08-05 02:54:00
11:54 PM,61.0,52.0,72,30.14,10.0,Calm,Calm,-,N/A,,Clear,0,2013-08-05 03:54:00